sensor_id;sensor_type;location;lat;lon;timestamp;temperature;humidity
64997;SHT31;51545;51.568;6.998;2023-08-06T00:00:03;15.71;99.44
64997;SHT31;51545;51.568;6.998;2023-08-06T00:02:30;15.70;99.28
64997;SHT31;51545;51.568;6.998;2023-08-06T00:04:55;15.77;99.99
64997;SHT31;51545;51.568;6.998;2023-08-06T00:07:20;15.77;99.99
64997;SHT31;51545;51.568;6.998;2023-08-06T00:09:46;15.64;99.96
64997;SHT31;51545;51.568;6.998;2023-08-06T00:12:11;15.69;99.96
64997;SHT31;51545;51.568;6.998;2023-08-06T00:14:37;15.67;99.77
64997;SHT31;51545;51.568;6.998;2023-08-06T00:17:02;15.70;99.73
64997;SHT31;51545;51.568;6.998;2023-08-06T00:19:28;15.70;99.96
64997;SHT31;51545;51.568;6.998;2023-08-06T00:21:53;15.69;99.99
64997;SHT31;51545;51.568;6.998;2023-08-06T00:24:19;15.74;99.99
64997;SHT31;51545;51.568;6.998;2023-08-06T00:26:44;15.71;99.99
64997;SHT31;51545;51.568;6.998;2023-08-06T00:29:10;15.71;99.99
64997;SHT31;51545;51.568;6.998;2023-08-06T00:31:35;15.70;99.99
64997;SHT31;51545;51.568;6.998;2023-08-06T00:34:01;15.73;99.99
64997;SHT31;51545;51.568;6.998;2023-08-06T00:36:26;15.73;99.99
64997;SHT31;51545;51.568;6.998;2023-08-06T00:38:51;15.70;99.99
64997;SHT31;51545;51.568;6.998;2023-08-06T00:41:17;15.69;99.99
64997;SHT31;51545;51.568;6.998;2023-08-06T00:43:42;15.73;99.99
64997;SHT31;51545;51.568;6.998;2023-08-06T00:46:08;15.59;99.99
64997;SHT31;51545;51.568;6.998;2023-08-06T00:48:34;15.60;99.99
64997;SHT31;51545;51.568;6.998;2023-08-06T00:51:00;15.60;99.96
64997;SHT31;51545;51.568;6.998;2023-08-06T00:53:26;15.57;99.98
64997;SHT31;51545;51.568;6.998;2023-08-06T00:55:52;15.57;99.93
64997;SHT31;51545;51.568;6.998;2023-08-06T00:58:18;15.61;99.99
64997;SHT31;51545;51.568;6.998;2023-08-06T01:00:44;15.53;99.65
64997;SHT31;51545;51.568;6.998;2023-08-06T01:03:09;15.54;99.69
64997;SHT31;51545;51.568;6.998;2023-08-06T01:05:35;15.56;99.77
64997;SHT31;51545;51.568;6.998;2023-08-06T01:16:15;15.60;99.75
64997;SHT31;51545;51.568;6.998;2023-08-06T01:18:43;15.59;99.69
64997;SHT31;51545;51.568;6.998;2023-08-06T01:21:12;15.56;99.76
64997;SHT31;51545;51.568;6.998;2023-08-06T01:23:38;15.53;99.71
64997;SHT31;51545;51.568;6.998;2023-08-06T01:26:15;15.54;99.82
64997;SHT31;51545;51.568;6.998;2023-08-06T01:31:53;15.56;99.99
64997;SHT31;51545;51.568;6.998;2023-08-06T01:34:21;15.52;99.99
64997;SHT31;51545;51.568;6.998;2023-08-06T01:36:49;15.56;99.99
64997;SHT31;51545;51.568;6.998;2023-08-06T01:39:18;15.56;99.99
64997;SHT31;51545;51.568;6.998;2023-08-06T01:41:46;15.53;99.94
64997;SHT31;51545;51.568;6.998;2023-08-06T01:44:12;15.61;99.76
64997;SHT31;51545;51.568;6.998;2023-08-06T01:46:38;15.60;99.99
64997;SHT31;51545;51.568;6.998;2023-08-06T01:49:04;15.54;99.99
64997;SHT31;51545;51.568;6.998;2023-08-06T01:51:29;15.54;99.82
64997;SHT31;51545;51.568;6.998;2023-08-06T01:53:55;15.52;99.53
64997;SHT31;51545;51.568;6.998;2023-08-06T01:56:20;15.56;99.66
64997;SHT31;51545;51.568;6.998;2023-08-06T01:58:46;15.57;99.77
64997;SHT31;51545;51.568;6.998;2023-08-06T02:01:11;15.61;99.77
64997;SHT31;51545;51.568;6.998;2023-08-06T02:03:36;15.61;99.68
64997;SHT31;51545;51.568;6.998;2023-08-06T02:06:02;15.52;99.63
64997;SHT31;51545;51.568;6.998;2023-08-06T02:08:27;15.53;99.42
64997;SHT31;51545;51.568;6.998;2023-08-06T02:10:53;15.54;99.99
64997;SHT31;51545;51.568;6.998;2023-08-06T02:13:19;15.61;99.74
64997;SHT31;51545;51.568;6.998;2023-08-06T02:15:45;15.59;99.56
64997;SHT31;51545;51.568;6.998;2023-08-06T02:18:14;15.49;99.60
64997;SHT31;51545;51.568;6.998;2023-08-06T02:20:40;15.50;99.74
64997;SHT31;51545;51.568;6.998;2023-08-06T02:23:06;15.52;99.75
64997;SHT31;51545;51.568;6.998;2023-08-06T02:25:31;15.56;99.99
64997;SHT31;51545;51.568;6.998;2023-08-06T02:27:57;15.56;99.85
64997;SHT31;51545;51.568;6.998;2023-08-06T02:30:23;15.50;99.99
64997;SHT31;51545;51.568;6.998;2023-08-06T02:32:48;15.46;99.86
64997;SHT31;51545;51.568;6.998;2023-08-06T02:35:13;15.53;99.99
64997;SHT31;51545;51.568;6.998;2023-08-06T02:37:39;15.56;99.99
64997;SHT31;51545;51.568;6.998;2023-08-06T02:40:04;15.52;99.82
64997;SHT31;51545;51.568;6.998;2023-08-06T02:42:30;15.47;99.97
64997;SHT31;51545;51.568;6.998;2023-08-06T02:44:56;15.46;99.71
64997;SHT31;51545;51.568;6.998;2023-08-06T02:47:21;15.44;99.79
64997;SHT31;51545;51.568;6.998;2023-08-06T02:49:47;15.54;99.99
64997;SHT31;51545;51.568;6.998;2023-08-06T02:52:12;15.50;99.99
64997;SHT31;51545;51.568;6.998;2023-08-06T02:54:38;15.46;99.99
64997;SHT31;51545;51.568;6.998;2023-08-06T02:57:04;15.52;99.99
64997;SHT31;51545;51.568;6.998;2023-08-06T02:59:30;15.50;99.67
64997;SHT31;51545;51.568;6.998;2023-08-06T03:01:56;15.47;99.79
64997;SHT31;51545;51.568;6.998;2023-08-06T03:04:21;15.44;99.03
64997;SHT31;51545;51.568;6.998;2023-08-06T03:06:47;15.44;98.85
64997;SHT31;51545;51.568;6.998;2023-08-06T03:09:14;15.49;98.90
64997;SHT31;51545;51.568;6.998;2023-08-06T03:11:39;15.50;99.07
64997;SHT31;51545;51.568;6.998;2023-08-06T03:14:05;15.54;99.41
64997;SHT31;51545;51.568;6.998;2023-08-06T03:16:30;15.43;98.57
64997;SHT31;51545;51.568;6.998;2023-08-06T03:18:56;15.38;99.13
64997;SHT31;51545;51.568;6.998;2023-08-06T03:21:21;15.33;99.37
64997;SHT31;51545;51.568;6.998;2023-08-06T03:23:47;15.38;99.40
64997;SHT31;51545;51.568;6.998;2023-08-06T03:26:13;15.38;99.99
64997;SHT31;51545;51.568;6.998;2023-08-06T03:28:39;15.38;99.81
64997;SHT31;51545;51.568;6.998;2023-08-06T03:31:04;15.31;99.99
64997;SHT31;51545;51.568;6.998;2023-08-06T03:33:30;15.31;99.99
64997;SHT31;51545;51.568;6.998;2023-08-06T03:35:56;15.33;99.99
64997;SHT31;51545;51.568;6.998;2023-08-06T03:38:21;15.29;99.99
64997;SHT31;51545;51.568;6.998;2023-08-06T03:40:50;15.11;99.99
64997;SHT31;51545;51.568;6.998;2023-08-06T03:43:16;15.09;99.99
64997;SHT31;51545;51.568;6.998;2023-08-06T03:45:42;15.01;99.99
64997;SHT31;51545;51.568;6.998;2023-08-06T03:48:08;14.95;99.99
64997;SHT31;51545;51.568;6.998;2023-08-06T03:50:34;14.99;99.99
64997;SHT31;51545;51.568;6.998;2023-08-06T03:53:01;15.09;99.99
64997;SHT31;51545;51.568;6.998;2023-08-06T03:55:27;15.12;99.99
64997;SHT31;51545;51.568;6.998;2023-08-06T03:57:53;15.14;99.99
64997;SHT31;51545;51.568;6.998;2023-08-06T04:00:18;15.02;99.99
64997;SHT31;51545;51.568;6.998;2023-08-06T04:02:44;14.98;99.99
64997;SHT31;51545;51.568;6.998;2023-08-06T04:05:09;14.88;99.99
64997;SHT31;51545;51.568;6.998;2023-08-06T04:07:35;14.80;99.99
64997;SHT31;51545;51.568;6.998;2023-08-06T04:10:03;14.78;99.99
64997;SHT31;51545;51.568;6.998;2023-08-06T04:12:30;14.64;99.99
64997;SHT31;51545;51.568;6.998;2023-08-06T04:15:00;14.59;99.99
64997;SHT31;51545;51.568;6.998;2023-08-06T04:17:26;14.61;99.99
64997;SHT31;51545;51.568;6.998;2023-08-06T04:19:51;14.59;99.99
64997;SHT31;51545;51.568;6.998;2023-08-06T04:22:19;14.70;99.99
64997;SHT31;51545;51.568;6.998;2023-08-06T04:24:45;14.78;99.99
64997;SHT31;51545;51.568;6.998;2023-08-06T04:27:11;14.83;99.99
64997;SHT31;51545;51.568;6.998;2023-08-06T04:29:37;14.76;99.99
64997;SHT31;51545;51.568;6.998;2023-08-06T04:32:07;14.83;99.99
64997;SHT31;51545;51.568;6.998;2023-08-06T04:34:34;14.84;99.99
64997;SHT31;51545;51.568;6.998;2023-08-06T04:37:00;14.87;99.99
64997;SHT31;51545;51.568;6.998;2023-08-06T04:39:26;14.89;99.99
64997;SHT31;51545;51.568;6.998;2023-08-06T04:41:51;14.99;99.99
64997;SHT31;51545;51.568;6.998;2023-08-06T04:44:17;15.05;99.99
64997;SHT31;51545;51.568;6.998;2023-08-06T04:46:42;15.09;99.99
64997;SHT31;51545;51.568;6.998;2023-08-06T04:49:08;15.09;99.99
64997;SHT31;51545;51.568;6.998;2023-08-06T04:51:34;15.09;99.99
64997;SHT31;51545;51.568;6.998;2023-08-06T04:53:59;15.08;99.99
64997;SHT31;51545;51.568;6.998;2023-08-06T04:56:25;15.08;99.99
64997;SHT31;51545;51.568;6.998;2023-08-06T04:58:50;15.11;99.99
64997;SHT31;51545;51.568;6.998;2023-08-06T05:01:16;15.11;99.99
64997;SHT31;51545;51.568;6.998;2023-08-06T05:03:42;15.26;99.99
64997;SHT31;51545;51.568;6.998;2023-08-06T05:06:07;15.35;99.99
64997;SHT31;51545;51.568;6.998;2023-08-06T05:08:32;15.46;99.99
64997;SHT31;51545;51.568;6.998;2023-08-06T05:10:58;15.57;99.99
64997;SHT31;51545;51.568;6.998;2023-08-06T05:13:23;15.63;99.99
64997;SHT31;51545;51.568;6.998;2023-08-06T05:15:50;15.69;99.99
64997;SHT31;51545;51.568;6.998;2023-08-06T05:18:15;15.81;99.99
64997;SHT31;51545;51.568;6.998;2023-08-06T05:20:41;15.92;99.99
64997;SHT31;51545;51.568;6.998;2023-08-06T05:23:08;16.02;99.99
64997;SHT31;51545;51.568;6.998;2023-08-06T05:25:37;16.06;99.99
64997;SHT31;51545;51.568;6.998;2023-08-06T05:28:03;16.14;99.99
64997;SHT31;51545;51.568;6.998;2023-08-06T05:30:29;16.14;99.99
64997;SHT31;51545;51.568;6.998;2023-08-06T05:32:55;16.09;99.99
64997;SHT31;51545;51.568;6.998;2023-08-06T05:35:21;16.09;99.99
64997;SHT31;51545;51.568;6.998;2023-08-06T05:37:47;16.02;99.92
64997;SHT31;51545;51.568;6.998;2023-08-06T05:40:12;16.04;99.74
64997;SHT31;51545;51.568;6.998;2023-08-06T05:42:38;15.99;99.75
64997;SHT31;51545;51.568;6.998;2023-08-06T05:45:04;16.01;99.38
64997;SHT31;51545;51.568;6.998;2023-08-06T05:47:29;15.97;99.28
64997;SHT31;51545;51.568;6.998;2023-08-06T05:49:55;15.99;99.50
64997;SHT31;51545;51.568;6.998;2023-08-06T05:52:20;16.01;99.61
64997;SHT31;51545;51.568;6.998;2023-08-06T05:54:46;16.01;99.56
64997;SHT31;51545;51.568;6.998;2023-08-06T05:57:11;16.16;99.59
64997;SHT31;51545;51.568;6.998;2023-08-06T05:59:37;16.15;99.56
64997;SHT31;51545;51.568;6.998;2023-08-06T06:02:02;16.11;98.81
64997;SHT31;51545;51.568;6.998;2023-08-06T06:04:28;16.14;98.73
64997;SHT31;51545;51.568;6.998;2023-08-06T06:06:53;16.19;98.51
64997;SHT31;51545;51.568;6.998;2023-08-06T06:09:19;16.29;98.81
64997;SHT31;51545;51.568;6.998;2023-08-06T06:11:44;16.40;98.60
64997;SHT31;51545;51.568;6.998;2023-08-06T06:14:10;16.47;98.78
64997;SHT31;51545;51.568;6.998;2023-08-06T06:16:35;16.56;98.64
64997;SHT31;51545;51.568;6.998;2023-08-06T06:19:01;16.61;98.46
64997;SHT31;51545;51.568;6.998;2023-08-06T06:21:26;16.61;98.32
64997;SHT31;51545;51.568;6.998;2023-08-06T06:23:52;16.74;98.26
64997;SHT31;51545;51.568;6.998;2023-08-06T06:26:18;16.71;98.20
64997;SHT31;51545;51.568;6.998;2023-08-06T06:28:43;16.80;98.05
64997;SHT31;51545;51.568;6.998;2023-08-06T06:31:09;16.85;98.23
64997;SHT31;51545;51.568;6.998;2023-08-06T06:33:35;16.91;98.30
64997;SHT31;51545;51.568;6.998;2023-08-06T06:36:00;16.95;98.16
64997;SHT31;51545;51.568;6.998;2023-08-06T06:38:28;16.92;96.96
64997;SHT31;51545;51.568;6.998;2023-08-06T06:40:56;16.75;95.29
64997;SHT31;51545;51.568;6.998;2023-08-06T06:43:22;16.80;96.51
64997;SHT31;51545;51.568;6.998;2023-08-06T06:45:58;16.47;94.97
64997;SHT31;51545;51.568;6.998;2023-08-06T06:48:25;16.52;94.64
64997;SHT31;51545;51.568;6.998;2023-08-06T06:50:52;16.75;95.08
64997;SHT31;51545;51.568;6.998;2023-08-06T06:53:17;16.87;96.61
64997;SHT31;51545;51.568;6.998;2023-08-06T06:55:43;16.85;95.30
64997;SHT31;51545;51.568;6.998;2023-08-06T06:58:08;17.09;96.51
64997;SHT31;51545;51.568;6.998;2023-08-06T07:00:37;17.19;93.92
64997;SHT31;51545;51.568;6.998;2023-08-06T07:03:03;17.30;93.15
64997;SHT31;51545;51.568;6.998;2023-08-06T07:05:28;17.51;94.23
64997;SHT31;51545;51.568;6.998;2023-08-06T07:07:55;17.70;93.68
64997;SHT31;51545;51.568;6.998;2023-08-06T07:10:20;17.29;91.59
64997;SHT31;51545;51.568;6.998;2023-08-06T07:12:46;17.40;93.32
64997;SHT31;51545;51.568;6.998;2023-08-06T07:15:11;17.37;92.66
64997;SHT31;51545;51.568;6.998;2023-08-06T07:17:37;17.32;94.49
64997;SHT31;51545;51.568;6.998;2023-08-06T07:20:02;17.42;94.26
64997;SHT31;51545;51.568;6.998;2023-08-06T07:22:28;17.46;94.16
64997;SHT31;51545;51.568;6.998;2023-08-06T07:24:54;17.12;91.59
64997;SHT31;51545;51.568;6.998;2023-08-06T07:27:19;17.25;92.70
64997;SHT31;51545;51.568;6.998;2023-08-06T07:29:45;17.44;93.06
64997;SHT31;51545;51.568;6.998;2023-08-06T07:32:10;17.37;93.94
64997;SHT31;51545;51.568;6.998;2023-08-06T07:34:36;17.50;93.39
64997;SHT31;51545;51.568;6.998;2023-08-06T07:37:01;17.60;91.99
64997;SHT31;51545;51.568;6.998;2023-08-06T07:39:27;17.54;92.62
64997;SHT31;51545;51.568;6.998;2023-08-06T07:41:53;17.53;91.51
64997;SHT31;51545;51.568;6.998;2023-08-06T07:44:19;17.69;93.42
64997;SHT31;51545;51.568;6.998;2023-08-06T07:46:44;17.66;91.38
64997;SHT31;51545;51.568;6.998;2023-08-06T07:49:10;17.82;92.43
64997;SHT31;51545;51.568;6.998;2023-08-06T07:51:36;17.82;92.28
64997;SHT31;51545;51.568;6.998;2023-08-06T07:54:02;17.97;91.86
64997;SHT31;51545;51.568;6.998;2023-08-06T07:56:28;18.08;92.80
64997;SHT31;51545;51.568;6.998;2023-08-06T07:58:53;17.89;90.14
64997;SHT31;51545;51.568;6.998;2023-08-06T08:01:19;17.98;90.22
64997;SHT31;51545;51.568;6.998;2023-08-06T08:03:44;18.19;92.20
64997;SHT31;51545;51.568;6.998;2023-08-06T08:06:10;18.13;93.32
64997;SHT31;51545;51.568;6.998;2023-08-06T08:08:36;17.84;92.54
64997;SHT31;51545;51.568;6.998;2023-08-06T08:11:03;17.82;90.42
64997;SHT31;51545;51.568;6.998;2023-08-06T08:13:29;17.87;89.73
64997;SHT31;51545;51.568;6.998;2023-08-06T08:15:57;18.22;89.10
64997;SHT31;51545;51.568;6.998;2023-08-06T08:18:23;18.43;89.21
64997;SHT31;51545;51.568;6.998;2023-08-06T08:20:49;18.60;87.67
64997;SHT31;51545;51.568;6.998;2023-08-06T08:23:14;18.59;88.14
64997;SHT31;51545;51.568;6.998;2023-08-06T08:25:40;18.27;88.97
64997;SHT31;51545;51.568;6.998;2023-08-06T08:28:05;18.09;90.76
64997;SHT31;51545;51.568;6.998;2023-08-06T08:30:31;17.85;92.19
64997;SHT31;51545;51.568;6.998;2023-08-06T08:32:56;17.50;91.56
64997;SHT31;51545;51.568;6.998;2023-08-06T08:35:22;17.30;92.19
64997;SHT31;51545;51.568;6.998;2023-08-06T08:37:47;17.30;94.59
64997;SHT31;51545;51.568;6.998;2023-08-06T08:40:14;17.26;94.08
64997;SHT31;51545;51.568;6.998;2023-08-06T08:42:39;17.32;92.71
64997;SHT31;51545;51.568;6.998;2023-08-06T08:45:06;17.29;91.54
64997;SHT31;51545;51.568;6.998;2023-08-06T08:47:39;17.61;91.96
64997;SHT31;51545;51.568;6.998;2023-08-06T08:50:06;17.57;93.63
64997;SHT31;51545;51.568;6.998;2023-08-06T08:52:33;17.42;93.55
64997;SHT31;51545;51.568;6.998;2023-08-06T08:55:00;17.57;93.94
64997;SHT31;51545;51.568;6.998;2023-08-06T08:57:26;17.40;95.68
64997;SHT31;51545;51.568;6.998;2023-08-06T08:59:52;17.23;95.20
64997;SHT31;51545;51.568;6.998;2023-08-06T09:02:17;17.27;95.31
64997;SHT31;51545;51.568;6.998;2023-08-06T09:04:47;17.46;94.21
64997;SHT31;51545;51.568;6.998;2023-08-06T09:07:14;17.55;93.85
64997;SHT31;51545;51.568;6.998;2023-08-06T09:09:43;17.53;94.73
64997;SHT31;51545;51.568;6.998;2023-08-06T09:12:12;17.69;94.49
64997;SHT31;51545;51.568;6.998;2023-08-06T09:14:40;17.92;94.53
64997;SHT31;51545;51.568;6.998;2023-08-06T09:17:05;18.09;92.74
64997;SHT31;51545;51.568;6.998;2023-08-06T09:19:31;18.15;93.63
64997;SHT31;51545;51.568;6.998;2023-08-06T09:21:57;18.26;91.54
64997;SHT31;51545;51.568;6.998;2023-08-06T09:24:23;18.44;90.22
64997;SHT31;51545;51.568;6.998;2023-08-06T09:26:49;18.50;89.67
64997;SHT31;51545;51.568;6.998;2023-08-06T09:29:14;18.77;90.27
64997;SHT31;51545;51.568;6.998;2023-08-06T09:31:41;19.08;90.78
64997;SHT31;51545;51.568;6.998;2023-08-06T09:34:11;19.25;89.11
64997;SHT31;51545;51.568;6.998;2023-08-06T09:36:41;19.51;87.07
64997;SHT31;51545;51.568;6.998;2023-08-06T09:39:20;20.02;84.80
64997;SHT31;51545;51.568;6.998;2023-08-06T09:41:52;19.77;84.74
64997;SHT31;51545;51.568;6.998;2023-08-06T09:44:21;20.05;87.57
64997;SHT31;51545;51.568;6.998;2023-08-06T09:46:49;19.40;85.86
64997;SHT31;51545;51.568;6.998;2023-08-06T09:49:17;19.43;89.08
64997;SHT31;51545;51.568;6.998;2023-08-06T09:51:44;18.72;87.38
64997;SHT31;51545;51.568;6.998;2023-08-06T09:54:12;18.52;87.94
64997;SHT31;51545;51.568;6.998;2023-08-06T09:56:38;18.42;89.65
64997;SHT31;51545;51.568;6.998;2023-08-06T09:59:06;18.50;89.10
64997;SHT31;51545;51.568;6.998;2023-08-06T10:01:33;17.99;92.61
64997;SHT31;51545;51.568;6.998;2023-08-06T10:04:00;17.82;91.41
64997;SHT31;51545;51.568;6.998;2023-08-06T10:06:28;17.84;93.00
64997;SHT31;51545;51.568;6.998;2023-08-06T10:08:54;17.81;92.84
64997;SHT31;51545;51.568;6.998;2023-08-06T10:11:23;17.77;93.05
64997;SHT31;51545;51.568;6.998;2023-08-06T10:13:53;17.82;92.99
64997;SHT31;51545;51.568;6.998;2023-08-06T10:16:23;17.63;93.87
64997;SHT31;51545;51.568;6.998;2023-08-06T10:18:50;17.58;93.69
64997;SHT31;51545;51.568;6.998;2023-08-06T10:21:17;17.58;94.60
64997;SHT31;51545;51.568;6.998;2023-08-06T10:23:42;17.69;94.77
64997;SHT31;51545;51.568;6.998;2023-08-06T10:26:08;18.01;94.54
64997;SHT31;51545;51.568;6.998;2023-08-06T10:28:34;17.98;93.03
64997;SHT31;51545;51.568;6.998;2023-08-06T10:31:01;18.01;93.63
64997;SHT31;51545;51.568;6.998;2023-08-06T10:33:39;18.19;94.03
64997;SHT31;51545;51.568;6.998;2023-08-06T10:36:12;18.27;93.33
64997;SHT31;51545;51.568;6.998;2023-08-06T10:38:49;18.49;93.18
64997;SHT31;51545;51.568;6.998;2023-08-06T10:41:16;18.89;92.47
64997;SHT31;51545;51.568;6.998;2023-08-06T10:43:48;18.84;92.23
64997;SHT31;51545;51.568;6.998;2023-08-06T10:46:21;19.27;92.90
64997;SHT31;51545;51.568;6.998;2023-08-06T10:48:48;18.94;94.43
64997;SHT31;51545;51.568;6.998;2023-08-06T10:51:14;18.54;95.21
64997;SHT31;51545;51.568;6.998;2023-08-06T10:53:46;18.04;94.75
64997;SHT31;51545;51.568;6.998;2023-08-06T10:56:18;17.66;95.80
64997;SHT31;51545;51.568;6.998;2023-08-06T10:58:47;17.26;94.34
64997;SHT31;51545;51.568;6.998;2023-08-06T11:01:14;17.20;95.83
64997;SHT31;51545;51.568;6.998;2023-08-06T11:03:40;17.12;97.35
64997;SHT31;51545;51.568;6.998;2023-08-06T11:06:07;17.20;97.63
64997;SHT31;51545;51.568;6.998;2023-08-06T11:08:34;17.15;97.42
64997;SHT31;51545;51.568;6.998;2023-08-06T11:11:10;17.15;97.42
64997;SHT31;51545;51.568;6.998;2023-08-06T11:13:38;17.01;96.95
64997;SHT31;51545;51.568;6.998;2023-08-06T11:16:16;16.88;97.05
64997;SHT31;51545;51.568;6.998;2023-08-06T11:18:43;16.99;98.56
64997;SHT31;51545;51.568;6.998;2023-08-06T11:21:09;16.87;98.70
64997;SHT31;51545;51.568;6.998;2023-08-06T11:23:37;16.92;98.39
64997;SHT31;51545;51.568;6.998;2023-08-06T11:26:03;16.91;98.44
64997;SHT31;51545;51.568;6.998;2023-08-06T11:28:28;17.15;99.09
64997;SHT31;51545;51.568;6.998;2023-08-06T11:30:55;17.16;98.36
64997;SHT31;51545;51.568;6.998;2023-08-06T11:33:25;17.25;98.80
64997;SHT31;51545;51.568;6.998;2023-08-06T11:35:51;17.23;98.21
64997;SHT31;51545;51.568;6.998;2023-08-06T11:38:17;17.29;98.70
64997;SHT31;51545;51.568;6.998;2023-08-06T11:40:52;17.40;98.93
64997;SHT31;51545;51.568;6.998;2023-08-06T11:43:18;17.23;98.75
64997;SHT31;51545;51.568;6.998;2023-08-06T11:45:44;17.20;99.49
64997;SHT31;51545;51.568;6.998;2023-08-06T11:48:09;17.18;99.21
64997;SHT31;51545;51.568;6.998;2023-08-06T11:50:38;16.91;98.81
64997;SHT31;51545;51.568;6.998;2023-08-06T11:53:04;16.70;98.58
64997;SHT31;51545;51.568;6.998;2023-08-06T11:55:30;16.29;98.75
64997;SHT31;51545;51.568;6.998;2023-08-06T11:57:56;16.32;98.75
64997;SHT31;51545;51.568;6.998;2023-08-06T12:00:22;16.14;98.51
64997;SHT31;51545;51.568;6.998;2023-08-06T12:02:49;16.12;99.31
64997;SHT31;51545;51.568;6.998;2023-08-06T12:05:20;16.04;99.34
64997;SHT31;51545;51.568;6.998;2023-08-06T12:07:50;16.06;98.82
64997;SHT31;51545;51.568;6.998;2023-08-06T12:10:17;16.14;99.42
64997;SHT31;51545;51.568;6.998;2023-08-06T12:12:46;16.24;98.59
64997;SHT31;51545;51.568;6.998;2023-08-06T12:15:11;16.43;98.84
64997;SHT31;51545;51.568;6.998;2023-08-06T12:17:37;16.28;98.29
64997;SHT31;51545;51.568;6.998;2023-08-06T12:20:04;16.19;98.26
64997;SHT31;51545;51.568;6.998;2023-08-06T12:22:31;16.12;98.66
64997;SHT31;51545;51.568;6.998;2023-08-06T12:25:03;16.12;99.09
64997;SHT31;51545;51.568;6.998;2023-08-06T12:27:34;15.99;98.05
64997;SHT31;51545;51.568;6.998;2023-08-06T12:30:00;15.75;96.92
64997;SHT31;51545;51.568;6.998;2023-08-06T12:32:25;15.59;97.32
64997;SHT31;51545;51.568;6.998;2023-08-06T12:34:51;15.63;99.23
64997;SHT31;51545;51.568;6.998;2023-08-06T12:37:16;15.49;99.09
64997;SHT31;51545;51.568;6.998;2023-08-06T12:39:42;15.32;99.56
64997;SHT31;51545;51.568;6.998;2023-08-06T12:42:07;15.31;99.84
64997;SHT31;51545;51.568;6.998;2023-08-06T12:44:33;15.08;99.94
64997;SHT31;51545;51.568;6.998;2023-08-06T12:46:59;15.01;99.42
64997;SHT31;51545;51.568;6.998;2023-08-06T12:49:24;14.94;99.60
64997;SHT31;51545;51.568;6.998;2023-08-06T12:51:52;14.84;99.75
64997;SHT31;51545;51.568;6.998;2023-08-06T12:54:18;14.77;99.82
64997;SHT31;51545;51.568;6.998;2023-08-06T12:56:45;14.92;99.99
64997;SHT31;51545;51.568;6.998;2023-08-06T12:59:11;14.80;99.99
64997;SHT31;51545;51.568;6.998;2023-08-06T13:01:37;14.77;99.99
64997;SHT31;51545;51.568;6.998;2023-08-06T13:04:03;14.85;99.87
64997;SHT31;51545;51.568;6.998;2023-08-06T13:06:29;14.85;99.99
64997;SHT31;51545;51.568;6.998;2023-08-06T13:08:55;14.84;99.99
64997;SHT31;51545;51.568;6.998;2023-08-06T13:11:21;15.09;99.99
64997;SHT31;51545;51.568;6.998;2023-08-06T13:13:47;15.04;99.99
64997;SHT31;51545;51.568;6.998;2023-08-06T13:16:12;15.22;99.99
64997;SHT31;51545;51.568;6.998;2023-08-06T13:18:38;15.08;99.58
64997;SHT31;51545;51.568;6.998;2023-08-06T13:21:03;15.08;99.38
64997;SHT31;51545;51.568;6.998;2023-08-06T13:23:29;15.14;99.70
64997;SHT31;51545;51.568;6.998;2023-08-06T13:25:54;15.33;99.99
64997;SHT31;51545;51.568;6.998;2023-08-06T13:28:20;15.29;99.99
64997;SHT31;51545;51.568;6.998;2023-08-06T13:30:46;15.32;99.81
64997;SHT31;51545;51.568;6.998;2023-08-06T13:33:11;15.44;99.49
64997;SHT31;51545;51.568;6.998;2023-08-06T13:35:37;15.39;99.61
64997;SHT31;51545;51.568;6.998;2023-08-06T13:38:03;15.43;99.92
64997;SHT31;51545;51.568;6.998;2023-08-06T13:40:29;15.35;99.48
64997;SHT31;51545;51.568;6.998;2023-08-06T13:42:58;15.43;99.54
64997;SHT31;51545;51.568;6.998;2023-08-06T13:45:23;15.42;99.71
64997;SHT31;51545;51.568;6.998;2023-08-06T13:47:49;15.35;99.27
64997;SHT31;51545;51.568;6.998;2023-08-06T13:50:15;15.52;99.99
64997;SHT31;51545;51.568;6.998;2023-08-06T13:52:40;15.52;99.94
64997;SHT31;51545;51.568;6.998;2023-08-06T13:55:06;15.54;99.81
64997;SHT31;51545;51.568;6.998;2023-08-06T13:57:32;15.44;99.96
64997;SHT31;51545;51.568;6.998;2023-08-06T13:59:58;15.39;99.99
64997;SHT31;51545;51.568;6.998;2023-08-06T14:02:23;15.53;99.99
64997;SHT31;51545;51.568;6.998;2023-08-06T14:04:50;15.52;99.99
64997;SHT31;51545;51.568;6.998;2023-08-06T14:07:16;15.54;99.86
64997;SHT31;51545;51.568;6.998;2023-08-06T14:09:42;15.66;99.87
64997;SHT31;51545;51.568;6.998;2023-08-06T14:12:09;15.61;99.58
64997;SHT31;51545;51.568;6.998;2023-08-06T14:14:35;15.70;99.56
64997;SHT31;51545;51.568;6.998;2023-08-06T14:17:00;15.67;99.27
64997;SHT31;51545;51.568;6.998;2023-08-06T14:19:26;15.69;98.76
64997;SHT31;51545;51.568;6.998;2023-08-06T14:21:52;15.84;98.67
64997;SHT31;51545;51.568;6.998;2023-08-06T14:24:17;15.91;98.32
64997;SHT31;51545;51.568;6.998;2023-08-06T14:26:43;15.82;98.11
64997;SHT31;51545;51.568;6.998;2023-08-06T14:29:09;15.81;98.14
64997;SHT31;51545;51.568;6.998;2023-08-06T14:31:34;15.74;98.78
64997;SHT31;51545;51.568;6.998;2023-08-06T14:34:00;15.71;98.75
64997;SHT31;51545;51.568;6.998;2023-08-06T14:36:26;15.80;98.54
64997;SHT31;51545;51.568;6.998;2023-08-06T14:38:51;15.84;98.22
64997;SHT31;51545;51.568;6.998;2023-08-06T14:41:17;16.01;98.06
64997;SHT31;51545;51.568;6.998;2023-08-06T14:43:42;16.06;98.22
64997;SHT31;51545;51.568;6.998;2023-08-06T14:46:08;15.85;97.86
64997;SHT31;51545;51.568;6.998;2023-08-06T14:48:33;15.82;96.75
64997;SHT31;51545;51.568;6.998;2023-08-06T14:51:00;15.92;96.54
64997;SHT31;51545;51.568;6.998;2023-08-06T14:53:26;15.81;95.83
64997;SHT31;51545;51.568;6.998;2023-08-06T14:55:51;15.92;95.81
64997;SHT31;51545;51.568;6.998;2023-08-06T14:58:16;16.02;97.15
64997;SHT31;51545;51.568;6.998;2023-08-06T15:00:42;15.99;96.53
64997;SHT31;51545;51.568;6.998;2023-08-06T15:03:07;16.14;96.08
64997;SHT31;51545;51.568;6.998;2023-08-06T15:05:33;16.16;95.50
64997;SHT31;51545;51.568;6.998;2023-08-06T15:07:59;16.37;95.68
64997;SHT31;51545;51.568;6.998;2023-08-06T15:10:24;16.35;95.60
64997;SHT31;51545;51.568;6.998;2023-08-06T15:12:50;16.30;95.62
64997;SHT31;51545;51.568;6.998;2023-08-06T15:15:15;16.30;94.42
64997;SHT31;51545;51.568;6.998;2023-08-06T15:17:41;16.26;94.72
64997;SHT31;51545;51.568;6.998;2023-08-06T15:20:07;16.47;93.97
64997;SHT31;51545;51.568;6.998;2023-08-06T15:22:33;16.44;94.32
64997;SHT31;51545;51.568;6.998;2023-08-06T15:25:01;16.63;93.97
64997;SHT31;51545;51.568;6.998;2023-08-06T15:27:28;16.65;94.01
64997;SHT31;51545;51.568;6.998;2023-08-06T15:29:53;16.43;93.91
64997;SHT31;51545;51.568;6.998;2023-08-06T15:32:20;16.52;94.79
64997;SHT31;51545;51.568;6.998;2023-08-06T15:34:47;16.53;94.49